Barra de Sao Francisco, Brazil
Current Conditions -  °F | °C
As of 11:00 AM on Friday 28 Nov 2014 (Local Time) from SBVT Reporting Station
Few Clouds Few Clouds  
Wind Chill: 81°   Ceiling: Unl
Heat Index: 85°   Visibility: 6mi
Dew Point: 72°   Wind: 6mph
Humidity: 74%   Direction: 180°S
Pressure: 29.91"   Gusts: NA
Location:  18.75°S, 40.87°W
Report Text: SBVT 281300Z 18005KT 9999 FEW025 27/22 Q1013
Loading
Personal Weather Stations






























Interactive Weather Map New forecast layout! Learn more

10-Day Weather Forecast

Advertisements
Track Severe Weather on mobile